Terminal Aerodrome Forecast
Issued by NWS

Home | Current Version | Previous Version | Text Only | Print | Product List | Glossary On
Versions: 1 2 3 4 5 6 7 8 9 10 11 12 13 14 15 16 17 18 19 20 21 22 23 24 25 26
000
FTUS46 KSGX 181100
TAFSAN
TAF
KSAN 181120Z 1812/1918 VRB03KT P6SM FEW012
      TEMPO 1812/1815 BKN012
     FM181900 29009KT P6SM SCT015
     FM190100 VRB04KT P6SM BKN018
     FM190900 VRB03KT P6SM OVC022=

USA.gov is the U.S. government's official web portal to all federal, state and local government web resources and services.